createdAt,value
2022-12-27T00:01:02.560Z,99894.16
2022-12-27T00:03:36.299Z,99894.77
2022-12-27T00:06:14.789Z,99892.99
2022-12-27T00:08:49.117Z,99892.88
2022-12-27T00:11:25.233Z,99888.62
2022-12-27T00:14:00.288Z,99887.10
2022-12-27T00:16:34.623Z,99893.48
2022-12-27T00:19:08.351Z,99894.23
2022-12-27T00:21:42.281Z,99894.24
2022-12-27T00:24:16.225Z,99892.52
2022-12-27T00:26:49.843Z,99893.56
2022-12-27T00:29:23.584Z,99889.94
2022-12-27T00:31:58.166Z,99882.20
2022-12-27T00:34:32.077Z,99883.85
2022-12-27T00:37:05.829Z,99886.36
2022-12-27T00:39:39.524Z,99886.86
2022-12-27T00:42:13.514Z,99887.84
2022-12-27T00:44:47.024Z,99886.11
2022-12-27T00:47:20.699Z,99892.57
2022-12-27T00:49:54.730Z,99898.08
2022-12-27T00:52:28.601Z,99900.11
2022-12-27T00:55:02.159Z,99896.48
2022-12-27T00:57:35.863Z,99896.81
2022-12-27T01:00:11.976Z,99893.11
2022-12-27T01:02:45.569Z,99896.58
2022-12-27T01:05:19.933Z,99895.73
2022-12-27T01:07:53.506Z,99900.13
2022-12-27T01:10:26.928Z,99899.44
2022-12-27T01:13:02.078Z,99900.94
2022-12-27T01:15:35.698Z,99899.82
2022-12-27T01:18:09.700Z,99893.75
2022-12-27T01:20:43.535Z,99889.40
2022-12-27T01:23:17.417Z,99890.74
2022-12-27T01:25:51.255Z,99895.60
2022-12-27T01:28:24.945Z,99896.27
2022-12-27T01:30:58.487Z,99894.33
2022-12-27T01:33:32.078Z,99887.65
2022-12-27T01:36:15.662Z,99885.34
2022-12-27T01:38:50.729Z,99891.27
2022-12-27T01:41:44.014Z,99895.77
2022-12-27T01:44:55.467Z,99897.64
2022-12-27T01:47:36.989Z,99900.98
2022-12-27T01:50:17.311Z,99903.05
2022-12-27T01:52:56.853Z,99902.16
2022-12-27T01:55:35.473Z,99897.28
2022-12-27T01:58:12.609Z,99896.98
2022-12-27T02:00:49.520Z,99896.84
2022-12-27T02:03:26.946Z,99888.74
2022-12-27T02:06:02.065Z,99887.15
2022-12-27T02:08:43.313Z,99889.81
2022-12-27T02:11:18.310Z,99885.61
2022-12-27T02:13:52.399Z,99883.29
2022-12-27T02:16:26.196Z,99882.20
2022-12-27T02:18:59.656Z,99889.50
2022-12-27T02:22:00.046Z,99890.92
2022-12-27T02:25:04.022Z,99891.17
2022-12-27T02:28:02.873Z,99887.33
2022-12-27T02:30:38.207Z,99886.53
2022-12-27T02:33:20.789Z,99887.27
2022-12-27T02:36:00.470Z,99890.66
2022-12-27T02:38:38.015Z,99896.23
2022-12-27T02:41:46.000Z,99896.34
2022-12-27T02:44:38.156Z,99899.42
2022-12-27T02:47:39.275Z,99900.11
2022-12-27T02:50:33.665Z,99903.80
2022-12-27T02:53:15.738Z,99904.80
2022-12-27T02:56:18.333Z,99904.56
2022-12-27T02:59:08.158Z,99907.91
2022-12-27T03:02:10.345Z,99905.02
2022-12-27T03:04:59.958Z,99903.66
2022-12-27T03:07:40.770Z,99910.41
2022-12-27T03:10:43.196Z,99913.12
2022-12-27T03:13:46.090Z,99919.64
2022-12-27T03:16:29.150Z,99925.56
2022-12-27T03:19:11.320Z,99926.13
2022-12-27T03:22:06.250Z,99956.89
2022-12-27T03:25:01.077Z,99986.06
2022-12-27T03:27:38.882Z,99994.23
2022-12-27T03:30:33.311Z,100006.31
2022-12-27T03:33:15.724Z,100020.67
2022-12-27T03:36:09.071Z,100026.14
2022-12-27T03:38:48.901Z,100042.67
2022-12-27T03:41:46.508Z,100052.01
2022-12-27T03:44:27.835Z,100061.58
2022-12-27T03:47:06.288Z,100074.27
2022-12-27T03:49:45.796Z,100083.24
2022-12-27T03:52:24.743Z,100088.84
2022-12-27T03:55:00.007Z,100093.34
2022-12-27T03:57:33.822Z,100094.27
2022-12-27T04:00:09.445Z,100104.95
2022-12-27T04:02:50.659Z,100110.83
2022-12-27T04:05:24.904Z,100112.92
2022-12-27T04:08:15.850Z,100120.20
2022-12-27T04:11:08.186Z,100117.61
2022-12-27T04:13:59.989Z,100120.63
2022-12-27T04:16:51.485Z,100118.61
2022-12-27T04:19:42.937Z,100115.20
2022-12-27T04:22:33.976Z,100119.73
2022-12-27T04:25:25.813Z,100129.09
2022-12-27T04:28:20.126Z,100127.39
2022-12-27T04:31:11.090Z,100138.29
2022-12-27T04:34:02.827Z,100145.11
2022-12-27T04:36:36.435Z,100142.50
2022-12-27T04:39:10.552Z,100152.66
2022-12-27T04:42:16.453Z,100156.67
2022-12-27T04:45:13.277Z,100158.33
2022-12-27T04:48:06.536Z,100160.38
2022-12-27T04:50:57.900Z,100168.42
2022-12-27T04:53:49.262Z,100171.48
2022-12-27T04:56:23.205Z,100173.71
2022-12-27T04:59:14.702Z,100174.73
2022-12-27T05:02:07.159Z,100182.69
2022-12-27T05:04:41.515Z,100188.97
2022-12-27T05:07:34.289Z,100192.96
2022-12-27T05:10:27.980Z,100201.58
2022-12-27T05:13:19.781Z,100208.02
2022-12-27T05:15:53.792Z,100208.45
2022-12-27T05:18:28.430Z,100210.91
2022-12-27T05:21:07.762Z,100214.19
2022-12-27T05:24:05.137Z,100216.44
2022-12-27T05:26:40.179Z,100218.77
2022-12-27T05:29:13.916Z,100224.71
2022-12-27T05:31:47.697Z,100226.38
2022-12-27T05:34:21.705Z,100232.83
2022-12-27T05:36:55.297Z,100238.52
2022-12-27T05:39:29.152Z,100249.27
2022-12-27T05:42:03.465Z,100256.96
2022-12-27T05:44:36.965Z,100254.05
2022-12-27T05:47:10.571Z,100259.75
2022-12-27T05:49:44.187Z,100261.98
2022-12-27T05:52:18.194Z,100263.69
2022-12-27T05:54:52.763Z,100270.68
2022-12-27T05:57:27.491Z,100275.84
2022-12-27T06:00:01.611Z,100284.58
2022-12-27T06:02:35.800Z,100294.06
2022-12-27T06:05:11.349Z,100300.84
2022-12-27T06:07:45.333Z,100298.95
2022-12-27T06:10:19.000Z,100302.95
2022-12-27T06:12:52.461Z,100301.52
2022-12-27T06:15:26.580Z,100305.44
2022-12-27T06:18:00.796Z,100309.52
2022-12-27T06:20:34.599Z,100313.95
2022-12-27T06:23:08.280Z,100316.10
2022-12-27T06:25:43.060Z,100317.35
2022-12-27T06:28:17.152Z,100319.52
2022-12-27T06:30:51.090Z,100320.23
2022-12-27T06:33:25.078Z,100322.89
2022-12-27T06:35:58.953Z,100332.81
2022-12-27T06:38:32.814Z,100338.75
2022-12-27T06:41:07.809Z,100337.75
2022-12-27T06:43:42.153Z,100346.30
2022-12-27T06:46:18.500Z,100348.70
2022-12-27T06:48:52.668Z,100352.77
2022-12-27T06:51:26.731Z,100354.42
2022-12-27T06:54:00.427Z,100359.66
2022-12-27T06:56:34.185Z,100363.47
2022-12-27T06:59:08.641Z,100363.14
2022-12-27T07:01:43.571Z,100370.90
2022-12-27T07:04:17.641Z,100380.39
2022-12-27T07:06:51.523Z,100384.84
2022-12-27T07:09:25.463Z,100392.25
2022-12-27T07:11:59.494Z,100401.33
2022-12-27T07:14:33.237Z,100402.20
2022-12-27T07:17:07.391Z,100401.62
2022-12-27T07:19:40.990Z,100410.45
2022-12-27T07:22:14.870Z,100416.55
2022-12-27T07:24:48.428Z,100421.08
2022-12-27T07:27:21.956Z,100419.73
2022-12-27T07:29:55.654Z,100418.97
2022-12-27T07:32:29.234Z,100422.86
2022-12-27T07:35:02.618Z,100429.02
2022-12-27T07:37:36.402Z,100438.34
2022-12-27T07:40:12.055Z,100437.23
2022-12-27T07:42:45.881Z,100438.14
2022-12-27T07:45:20.415Z,100444.48
2022-12-27T07:47:54.756Z,100444.48
2022-12-27T07:50:28.708Z,100447.35
2022-12-27T07:53:02.529Z,100455.32
2022-12-27T07:55:36.447Z,100456.44
2022-12-27T07:58:10.574Z,100458.29
2022-12-27T08:00:44.056Z,100457.07
2022-12-27T08:03:17.951Z,100461.13
2022-12-27T08:05:53.839Z,100464.73
2022-12-27T08:08:30.012Z,100472.52
2022-12-27T08:11:05.748Z,100478.33
2022-12-27T08:13:40.132Z,100484.73
2022-12-27T08:16:19.778Z,100492.19
2022-12-27T08:18:53.571Z,100498.53
2022-12-27T08:21:27.297Z,100502.66
2022-12-27T08:24:01.020Z,100506.06
2022-12-27T08:26:34.438Z,100507.91
2022-12-27T08:29:08.839Z,100508.63
2022-12-27T08:32:07.894Z,100504.59
2022-12-27T08:34:42.115Z,100507.04
2022-12-27T08:37:16.516Z,100509.30
2022-12-27T08:39:50.325Z,100510.65
2022-12-27T08:42:24.170Z,100515.70
2022-12-27T08:44:58.083Z,100512.41
2022-12-27T08:47:31.695Z,100519.06
2022-12-27T08:50:05.489Z,100520.77
2022-12-27T08:52:39.031Z,100519.83
2022-12-27T08:55:13.692Z,100523.33
2022-12-27T08:57:47.710Z,100527.66
2022-12-27T09:00:21.997Z,100527.57
2022-12-27T09:02:56.368Z,100526.67
2022-12-27T09:05:31.308Z,100535.80
2022-12-27T09:08:07.576Z,100541.02
2022-12-27T09:10:41.744Z,100543.08
2022-12-27T09:13:15.575Z,100541.07
2022-12-27T09:15:49.595Z,100545.42
2022-12-27T09:18:23.415Z,100544.21
2022-12-27T09:20:56.981Z,100549.27
2022-12-27T09:23:31.410Z,100549.83
2022-12-27T09:26:10.979Z,100553.22
2022-12-27T09:28:45.566Z,100557.15
2022-12-27T09:31:20.888Z,100554.08
2022-12-27T09:33:55.588Z,100553.21
2022-12-27T09:36:31.204Z,100549.39
2022-12-27T09:39:05.812Z,100553.33
2022-12-27T09:42:46.707Z,100555.27
2022-12-27T09:44:58.587Z,100554.55
2022-12-27T09:47:42.581Z,100555.65
2022-12-27T09:50:19.209Z,100556.33
2022-12-27T09:53:01.029Z,100557.33
2022-12-27T09:55:43.442Z,100559.24
2022-12-27T09:58:43.221Z,100564.19
2022-12-27T10:01:25.893Z,100568.14
2022-12-27T10:04:00.680Z,100570.15
2022-12-27T10:06:50.713Z,100577.20
2022-12-27T10:09:48.399Z,100584.77
2022-12-27T10:12:35.505Z,100587.66
2022-12-27T10:15:25.790Z,100591.77
2022-12-27T10:18:10.658Z,100591.84
2022-12-27T10:20:59.947Z,100588.35
2022-12-27T10:23:36.022Z,100587.73
2022-12-27T10:26:13.929Z,100586.56
2022-12-27T10:28:52.075Z,100581.05
2022-12-27T10:31:29.990Z,100581.74
2022-12-27T10:34:10.359Z,100585.02
2022-12-27T10:36:46.165Z,100583.14
2022-12-27T10:39:23.400Z,100586.55
2022-12-27T10:42:06.937Z,100589.77
2022-12-27T10:44:41.253Z,100590.55
2022-12-27T10:47:15.353Z,100592.34
2022-12-27T10:50:11.826Z,100596.56
2022-12-27T10:52:50.209Z,100599.91
2022-12-27T10:55:38.168Z,100594.64
2022-12-27T10:58:37.708Z,100590.95
2022-12-27T11:01:20.394Z,100594.52
2022-12-27T11:03:54.520Z,100588.35
2022-12-27T11:06:29.843Z,100584.98
2022-12-27T11:09:26.175Z,100590.85
2022-12-27T11:12:18.890Z,100587.79
2022-12-27T11:15:01.187Z,100588.84
2022-12-27T11:17:40.056Z,100587.36
2022-12-27T11:20:24.542Z,100591.21
2022-12-27T11:23:01.620Z,100594.42
2022-12-27T11:25:36.488Z,100597.41
2022-12-27T11:28:22.381Z,100601.56
2022-12-27T11:31:00.901Z,100603.52
2022-12-27T11:33:39.747Z,100598.18
2022-12-27T11:36:16.295Z,100597.63
2022-12-27T11:38:53.349Z,100599.74
2022-12-27T11:41:36.149Z,100603.92
2022-12-27T11:44:19.502Z,100620.52
2022-12-27T11:46:59.524Z,100625.11
2022-12-27T11:49:38.890Z,100628.98
2022-12-27T11:52:49.352Z,100633.47
2022-12-27T11:55:44.253Z,100639.08
2022-12-27T11:58:46.862Z,100637.08
2022-12-27T12:02:00.479Z,100637.39
2022-12-27T12:05:21.642Z,100645.94
2022-12-27T12:08:25.309Z,100653.50
2022-12-27T12:11:06.247Z,100649.52
2022-12-27T12:14:18.119Z,100652.21
2022-12-27T12:17:08.780Z,100653.55
2022-12-27T12:20:05.841Z,100651.30
2022-12-27T12:22:56.991Z,100654.27
2022-12-27T12:26:06.572Z,100661.11
2022-12-27T12:29:08.674Z,100667.52
2022-12-27T12:32:24.529Z,100667.16
2022-12-27T12:35:20.763Z,100659.94
2022-12-27T12:38:06.893Z,100663.39
2022-12-27T12:41:08.230Z,100665.17
2022-12-27T12:44:10.781Z,100669.50
2022-12-27T12:46:55.185Z,100671.23
2022-12-27T12:49:48.221Z,100669.48
2022-12-27T12:52:40.446Z,100672.11
2022-12-27T12:55:38.971Z,100677.85
2022-12-27T12:58:30.135Z,100679.64
2022-12-27T13:01:28.330Z,100677.43
2022-12-27T13:04:19.278Z,100671.75
2022-12-27T13:07:17.258Z,100671.29
2022-12-27T13:10:15.880Z,100672.70
2022-12-27T13:12:58.173Z,100673.50
2022-12-27T13:15:48.618Z,100672.15
2022-12-27T13:18:30.883Z,100669.16
2022-12-27T13:21:14.262Z,100671.41
2022-12-27T13:24:03.341Z,100672.11
2022-12-27T13:26:50.324Z,100679.81
2022-12-27T13:29:41.300Z,100682.26
2022-12-27T13:32:26.229Z,100680.58
2022-12-27T13:35:20.224Z,100688.19
2022-12-27T13:38:07.936Z,100694.17
2022-12-27T13:41:18.265Z,100698.45
2022-12-27T13:44:02.023Z,100706.59
2022-12-27T13:46:55.718Z,100713.32
2022-12-27T13:49:51.665Z,100714.56
2022-12-27T13:52:47.662Z,100714.70
2022-12-27T13:55:36.413Z,100720.69
2022-12-27T13:58:40.184Z,100719.06
2022-12-27T14:01:47.131Z,100719.77
2022-12-27T14:04:46.344Z,100718.98
2022-12-27T14:07:42.500Z,100719.52
2022-12-27T14:10:23.779Z,100717.02
2022-12-27T14:13:04.143Z,100715.56
2022-12-27T14:16:01.247Z,100711.62
2022-12-27T14:18:55.330Z,100711.83
2022-12-27T14:22:03.951Z,100720.80
2022-12-27T14:25:07.880Z,100726.66
2022-12-27T14:28:18.823Z,100731.33
2022-12-27T14:31:41.698Z,100737.59
2022-12-27T14:34:58.890Z,100737.66
2022-12-27T14:38:05.885Z,100737.02
2022-12-27T14:41:02.066Z,100739.41
2022-12-27T14:44:10.901Z,100741.48
2022-12-27T14:47:21.429Z,100745.38
2022-12-27T14:50:42.683Z,100747.23
2022-12-27T14:53:58.449Z,100750.52
2022-12-27T14:56:38.851Z,100751.05
2022-12-27T14:59:28.929Z,100749.80
2022-12-27T15:02:22.153Z,100750.72
2022-12-27T15:05:09.885Z,100752.63
2022-12-27T15:08:05.791Z,100761.57
2022-12-27T15:10:57.906Z,100762.65
2022-12-27T15:13:48.863Z,100764.98
2022-12-27T15:16:35.144Z,100768.09
2022-12-27T15:19:31.795Z,100767.55
2022-12-27T15:22:17.955Z,100765.64
2022-12-27T15:25:02.336Z,100765.77
2022-12-27T15:27:50.970Z,100769.41
2022-12-27T15:30:31.192Z,100775.23
2022-12-27T15:33:16.309Z,100774.85
2022-12-27T15:35:58.268Z,100777.48
2022-12-27T15:38:53.480Z,100772.79
2022-12-27T15:41:59.132Z,100776.81
2022-12-27T15:44:55.324Z,100773.30
2022-12-27T15:47:57.221Z,100768.06
2022-12-27T15:50:45.224Z,100770.63
2022-12-27T15:53:36.404Z,100768.09
2022-12-27T15:56:33.230Z,100770.89
2022-12-27T15:59:41.738Z,100775.63
2022-12-27T16:02:30.735Z,100784.85
2022-12-27T16:05:36.365Z,100786.16
2022-12-27T16:08:29.909Z,100788.20
2022-12-27T16:11:06.045Z,100787.08
2022-12-27T16:13:48.724Z,100790.48
2022-12-27T16:16:56.601Z,100793.91
2022-12-27T16:20:06.115Z,100795.16
2022-12-27T16:22:43.837Z,100793.95
2022-12-27T16:25:35.634Z,100791.84
2022-12-27T16:28:20.535Z,100797.36
2022-12-27T16:30:56.866Z,100798.70
2022-12-27T16:33:39.413Z,100798.95
2022-12-27T16:36:24.889Z,100796.12
2022-12-27T16:39:19.809Z,100798.45
2022-12-27T16:42:09.958Z,100795.73
2022-12-27T16:45:03.116Z,100795.48
2022-12-27T16:48:06.308Z,100799.81
2022-12-27T16:50:54.611Z,100799.89
2022-12-27T16:53:47.852Z,100799.80
2022-12-27T16:56:25.838Z,100804.08
2022-12-27T16:59:01.103Z,100809.64
2022-12-27T17:02:00.843Z,100816.87
2022-12-27T17:04:58.843Z,100824.86
2022-12-27T17:08:11.503Z,100828.61
2022-12-27T17:11:06.175Z,100822.47
2022-12-27T17:13:46.852Z,100820.55
2022-12-27T17:16:29.454Z,100818.09
2022-12-27T17:19:09.020Z,100817.96
2022-12-27T17:21:46.750Z,100820.66
2022-12-27T17:24:23.363Z,100826.97
2022-12-27T17:27:11.168Z,100824.55
2022-12-27T17:30:08.191Z,100825.52
2022-12-27T17:32:53.992Z,100826.80
2022-12-27T17:35:35.930Z,100829.27
2022-12-27T17:38:27.146Z,100832.09
2022-12-27T17:41:15.417Z,100839.16
2022-12-27T17:44:20.796Z,100840.27
2022-12-27T17:47:05.139Z,100841.15
2022-12-27T17:49:43.004Z,100847.20
2022-12-27T17:52:44.610Z,100844.45
2022-12-27T17:55:42.134Z,100846.77
2022-12-27T17:58:18.390Z,100848.39
2022-12-27T18:01:01.705Z,100849.42
2022-12-27T18:03:45.771Z,100851.13
2022-12-27T18:06:26.714Z,100856.36
2022-12-27T18:09:02.004Z,100853.27
2022-12-27T18:11:40.153Z,100859.59
2022-12-27T18:14:18.077Z,100855.58
2022-12-27T18:16:54.534Z,100857.73
2022-12-27T18:19:33.864Z,100858.67
2022-12-27T18:22:19.864Z,100858.92
2022-12-27T18:24:56.258Z,100860.17
2022-12-27T18:27:31.694Z,100865.45
2022-12-27T18:30:07.909Z,100867.45
2022-12-27T18:32:44.191Z,100866.44
2022-12-27T18:35:24.367Z,100867.98
2022-12-27T18:38:00.539Z,100871.88
2022-12-27T18:40:37.609Z,100872.34
2022-12-27T18:43:18.804Z,100877.16
2022-12-27T18:45:59.951Z,100879.50
2022-12-27T18:48:37.968Z,100883.54
2022-12-27T18:51:14.060Z,100887.00
2022-12-27T18:53:51.153Z,100892.05
2022-12-27T18:56:33.600Z,100893.77
2022-12-27T18:59:22.434Z,100890.08
2022-12-27T19:02:02.342Z,100892.70
2022-12-27T19:04:38.239Z,100901.67
2022-12-27T19:07:16.761Z,100901.91
2022-12-27T19:09:58.537Z,100907.85
2022-12-27T19:12:37.256Z,100910.42
2022-12-27T19:15:20.656Z,100913.35
2022-12-27T19:17:59.402Z,100915.02
2022-12-27T19:20:36.201Z,100913.59
2022-12-27T19:23:31.685Z,100914.08
2022-12-27T19:26:25.120Z,100917.61
2022-12-27T19:29:11.420Z,100911.86
2022-12-27T19:31:54.000Z,100906.39
2022-12-27T19:34:31.560Z,100903.76
2022-12-27T19:37:07.292Z,100901.58
2022-12-27T19:39:44.654Z,100906.56
2022-12-27T19:42:28.091Z,100913.59
2022-12-27T19:45:03.440Z,100915.15
2022-12-27T19:47:41.020Z,100919.23
2022-12-27T19:50:17.152Z,100923.09
2022-12-27T19:52:51.531Z,100927.15
2022-12-27T19:55:28.967Z,100931.58
2022-12-27T19:58:03.604Z,100931.98
2022-12-27T20:00:38.732Z,100936.02
2022-12-27T20:03:15.516Z,100945.58
2022-12-27T20:06:14.909Z,100945.46
2022-12-27T20:08:48.863Z,100947.98
2022-12-27T20:11:28.086Z,100949.88
2022-12-27T20:14:03.087Z,100954.12
2022-12-27T20:16:38.777Z,100953.47
2022-12-27T20:19:13.642Z,100955.27
2022-12-27T20:21:48.200Z,100957.72
2022-12-27T20:24:22.655Z,100963.36
2022-12-27T20:26:59.228Z,100961.42
2022-12-27T20:29:34.133Z,100961.19
2022-12-27T20:32:10.633Z,100966.67
2022-12-27T20:34:45.257Z,100971.67
2022-12-27T20:37:24.340Z,100971.11
2022-12-27T20:39:59.987Z,100968.45
2022-12-27T20:42:36.338Z,100970.70
2022-12-27T20:45:11.951Z,100973.36
2022-12-27T20:47:46.634Z,100976.04
2022-12-27T20:50:21.073Z,100978.45
2022-12-27T20:52:54.977Z,100982.50
2022-12-27T20:55:30.308Z,100987.27
2022-12-27T20:58:05.347Z,100986.82
2022-12-27T21:00:41.923Z,100987.71
2022-12-27T21:03:16.007Z,100989.92
2022-12-27T21:05:50.881Z,100990.91
2022-12-27T21:08:25.154Z,100987.70
2022-12-27T21:10:58.616Z,100988.30
2022-12-27T21:13:33.841Z,100992.66
2022-12-27T21:16:11.961Z,100995.50
2022-12-27T21:18:45.817Z,100993.50
2022-12-27T21:21:22.623Z,100991.38
2022-12-27T21:23:59.437Z,100992.64
2022-12-27T21:26:36.603Z,100994.95
2022-12-27T21:29:12.538Z,100996.33
2022-12-27T21:31:46.627Z,100998.92
2022-12-27T21:34:21.014Z,101004.23
2022-12-27T21:36:55.531Z,101008.58
2022-12-27T21:39:29.356Z,101011.70
2022-12-27T21:42:03.613Z,101009.52
2022-12-27T21:44:39.401Z,101013.24
2022-12-27T21:47:12.984Z,101013.08
2022-12-27T21:49:46.571Z,101013.04
2022-12-27T21:52:20.591Z,101015.28
2022-12-27T21:54:54.502Z,101010.13
2022-12-27T21:57:28.124Z,101009.98
2022-12-27T22:00:01.875Z,101019.25
2022-12-27T22:02:38.508Z,101019.21
2022-12-27T22:05:13.057Z,101018.45
2022-12-27T22:07:46.620Z,101019.63
2022-12-27T22:10:20.894Z,101021.82
2022-12-27T22:12:54.681Z,101024.95
2022-12-27T22:15:28.554Z,101024.61
2022-12-27T22:18:02.294Z,101027.47
2022-12-27T22:20:37.128Z,101025.38
2022-12-27T22:23:12.464Z,101030.63
2022-12-27T22:25:46.582Z,101029.45
2022-12-27T22:28:20.442Z,101032.70
2022-12-27T22:30:54.199Z,101033.91
2022-12-27T22:33:28.253Z,101037.17
2022-12-27T22:36:08.137Z,101039.56
2022-12-27T22:38:42.362Z,101039.71
2022-12-27T22:41:18.301Z,101040.61
2022-12-27T22:43:56.001Z,101040.73
2022-12-27T22:46:51.173Z,101038.36
2022-12-27T22:49:24.997Z,101037.78
2022-12-27T22:51:58.679Z,101038.32
2022-12-27T22:55:04.581Z,101034.58
2022-12-27T22:57:26.129Z,101030.48
2022-12-27T22:59:59.903Z,101028.50
2022-12-27T23:02:34.961Z,101028.02
2022-12-27T23:05:10.168Z,101027.79
2022-12-27T23:08:05.703Z,101026.23
2022-12-27T23:10:38.018Z,101026.85
2022-12-27T23:13:11.603Z,101020.48
2022-12-27T23:15:45.713Z,101018.90
2022-12-27T23:18:19.642Z,101022.70
2022-12-27T23:21:21.863Z,101025.11
2022-12-27T23:23:48.012Z,101028.91
2022-12-27T23:26:23.445Z,101027.34
2022-12-27T23:28:57.324Z,101031.73
2022-12-27T23:31:31.138Z,101027.34
2022-12-27T23:34:05.055Z,101028.66
2022-12-27T23:36:38.814Z,101026.81
2022-12-27T23:39:12.610Z,101027.16
2022-12-27T23:41:46.798Z,101025.05
2022-12-27T23:44:33.800Z,101025.88
2022-12-27T23:47:09.616Z,101026.86
2022-12-27T23:49:43.262Z,101026.55
2022-12-27T23:52:17.209Z,101027.71
2022-12-27T23:54:51.181Z,101029.73
2022-12-27T23:57:24.842Z,101031.82
2022-12-27T23:59:58.693Z,101033.73
